sensor_id;sensor_type;location;lat;lon;timestamp;temperature;humidity
1948;DHT22;974;52.400;9.818;2022-10-12T00:02:23;5.50;99.90
1948;DHT22;974;52.400;9.818;2022-10-12T00:04:49;5.40;99.90
1948;DHT22;974;52.400;9.818;2022-10-12T00:07:14;5.50;99.90
1948;DHT22;974;52.400;9.818;2022-10-12T00:09:40;5.50;99.90
1948;DHT22;974;52.400;9.818;2022-10-12T00:12:05;5.60;99.90
1948;DHT22;974;52.400;9.818;2022-10-12T00:14:35;5.50;99.90
1948;DHT22;974;52.400;9.818;2022-10-12T00:17:01;5.50;99.90
1948;DHT22;974;52.400;9.818;2022-10-12T00:19:27;5.50;99.90
1948;DHT22;974;52.400;9.818;2022-10-12T00:21:52;5.40;99.90
1948;DHT22;974;52.400;9.818;2022-10-12T00:24:18;5.40;99.90
1948;DHT22;974;52.400;9.818;2022-10-12T00:26:43;5.40;99.90
1948;DHT22;974;52.400;9.818;2022-10-12T00:29:09;5.40;99.90
1948;DHT22;974;52.400;9.818;2022-10-12T00:31:35;5.40;99.90
1948;DHT22;974;52.400;9.818;2022-10-12T00:34:01;5.40;99.90
1948;DHT22;974;52.400;9.818;2022-10-12T00:36:29;5.30;99.90
1948;DHT22;974;52.400;9.818;2022-10-12T00:38:57;5.30;99.90
1948;DHT22;974;52.400;9.818;2022-10-12T00:41:28;5.30;99.90
1948;DHT22;974;52.400;9.818;2022-10-12T00:43:55;5.30;99.90
1948;DHT22;974;52.400;9.818;2022-10-12T00:51:40;5.30;99.90
1948;DHT22;974;52.400;9.818;2022-10-12T00:54:09;5.30;99.90
1948;DHT22;974;52.400;9.818;2022-10-12T00:56:39;5.30;99.90
1948;DHT22;974;52.400;9.818;2022-10-12T00:59:10;5.10;99.90
1948;DHT22;974;52.400;9.818;2022-10-12T01:01:37;5.10;99.90
1948;DHT22;974;52.400;9.818;2022-10-12T01:04:04;5.10;99.90
1948;DHT22;974;52.400;9.818;2022-10-12T01:06:30;5.10;99.90
1948;DHT22;974;52.400;9.818;2022-10-12T01:08:57;5.10;99.90
1948;DHT22;974;52.400;9.818;2022-10-12T01:11:23;5.20;99.90
1948;DHT22;974;52.400;9.818;2022-10-12T01:13:48;5.10;99.90
1948;DHT22;974;52.400;9.818;2022-10-12T01:16:38;4.80;99.90
1948;DHT22;974;52.400;9.818;2022-10-12T01:19:29;5.20;99.90
1948;DHT22;974;52.400;9.818;2022-10-12T01:22:04;5.10;99.90
1948;DHT22;974;52.400;9.818;2022-10-12T01:24:52;5.00;99.90
1948;DHT22;974;52.400;9.818;2022-10-12T01:38:19;4.90;99.90
1948;DHT22;974;52.400;9.818;2022-10-12T01:41:06;4.80;99.90
1948;DHT22;974;52.400;9.818;2022-10-12T01:43:35;4.70;99.90
1948;DHT22;974;52.400;9.818;2022-10-12T01:49:00;4.90;99.90
1948;DHT22;974;52.400;9.818;2022-10-12T01:57:24;4.80;99.90
1948;DHT22;974;52.400;9.818;2022-10-12T02:00:10;4.80;99.90
1948;DHT22;974;52.400;9.818;2022-10-12T02:05:49;4.60;99.90
1948;DHT22;974;52.400;9.818;2022-10-12T02:08:25;4.70;99.90
1948;DHT22;974;52.400;9.818;2022-10-12T02:11:00;4.70;99.90
1948;DHT22;974;52.400;9.818;2022-10-12T02:13:30;4.60;99.90
1948;DHT22;974;52.400;9.818;2022-10-12T02:15:59;4.60;99.90
1948;DHT22;974;52.400;9.818;2022-10-12T02:18:28;4.60;99.90
1948;DHT22;974;52.400;9.818;2022-10-12T02:20:54;4.50;99.90
1948;DHT22;974;52.400;9.818;2022-10-12T02:23:23;4.60;99.90
1948;DHT22;974;52.400;9.818;2022-10-12T02:25:51;4.50;99.90
1948;DHT22;974;52.400;9.818;2022-10-12T02:28:20;4.60;99.90
1948;DHT22;974;52.400;9.818;2022-10-12T02:30:56;4.40;99.90
1948;DHT22;974;52.400;9.818;2022-10-12T02:33:34;4.50;99.90
1948;DHT22;974;52.400;9.818;2022-10-12T02:36:05;4.50;99.90
1948;DHT22;974;52.400;9.818;2022-10-12T02:38:37;4.50;99.90
1948;DHT22;974;52.400;9.818;2022-10-12T02:41:15;4.50;99.90
1948;DHT22;974;52.400;9.818;2022-10-12T02:43:43;4.40;99.90
1948;DHT22;974;52.400;9.818;2022-10-12T02:46:10;4.40;99.90
1948;DHT22;974;52.400;9.818;2022-10-12T02:48:38;4.40;99.90
1948;DHT22;974;52.400;9.818;2022-10-12T02:51:05;4.30;99.90
1948;DHT22;974;52.400;9.818;2022-10-12T02:53:31;4.30;99.90
1948;DHT22;974;52.400;9.818;2022-10-12T02:56:11;4.30;99.90
1948;DHT22;974;52.400;9.818;2022-10-12T02:58:37;4.30;99.90
1948;DHT22;974;52.400;9.818;2022-10-12T03:01:03;4.30;99.90
1948;DHT22;974;52.400;9.818;2022-10-12T03:03:28;4.30;99.90
1948;DHT22;974;52.400;9.818;2022-10-12T03:05:55;4.30;99.90
1948;DHT22;974;52.400;9.818;2022-10-12T03:08:20;4.30;99.90
1948;DHT22;974;52.400;9.818;2022-10-12T03:10:46;4.30;99.90
1948;DHT22;974;52.400;9.818;2022-10-12T03:13:11;4.30;99.90
1948;DHT22;974;52.400;9.818;2022-10-12T03:15:37;4.30;99.90
1948;DHT22;974;52.400;9.818;2022-10-12T03:18:02;4.30;99.90
1948;DHT22;974;52.400;9.818;2022-10-12T03:20:28;4.30;99.90
1948;DHT22;974;52.400;9.818;2022-10-12T03:22:53;4.20;99.90
1948;DHT22;974;52.400;9.818;2022-10-12T03:25:19;4.20;99.90
1948;DHT22;974;52.400;9.818;2022-10-12T03:27:45;4.20;99.90
1948;DHT22;974;52.400;9.818;2022-10-12T03:30:11;4.20;99.90
1948;DHT22;974;52.400;9.818;2022-10-12T03:32:37;4.20;99.90
1948;DHT22;974;52.400;9.818;2022-10-12T03:35:04;4.20;99.90
1948;DHT22;974;52.400;9.818;2022-10-12T03:37:29;4.30;99.90
1948;DHT22;974;52.400;9.818;2022-10-12T03:39:55;4.20;99.90
1948;DHT22;974;52.400;9.818;2022-10-12T03:42:20;4.20;99.90
1948;DHT22;974;52.400;9.818;2022-10-12T03:44:46;4.20;99.90
1948;DHT22;974;52.400;9.818;2022-10-12T03:47:11;4.30;99.90
1948;DHT22;974;52.400;9.818;2022-10-12T03:49:37;4.30;99.90
1948;DHT22;974;52.400;9.818;2022-10-12T03:52:03;4.30;99.90
1948;DHT22;974;52.400;9.818;2022-10-12T03:54:28;4.20;99.90
1948;DHT22;974;52.400;9.818;2022-10-12T03:56:54;4.20;99.90
1948;DHT22;974;52.400;9.818;2022-10-12T03:59:19;4.20;99.90
1948;DHT22;974;52.400;9.818;2022-10-12T04:01:45;4.10;99.90
1948;DHT22;974;52.400;9.818;2022-10-12T04:04:10;4.20;99.90
1948;DHT22;974;52.400;9.818;2022-10-12T04:06:36;4.20;99.90
1948;DHT22;974;52.400;9.818;2022-10-12T04:09:01;4.20;99.90
1948;DHT22;974;52.400;9.818;2022-10-12T04:11:27;4.20;99.90
1948;DHT22;974;52.400;9.818;2022-10-12T04:13:53;4.20;99.90
1948;DHT22;974;52.400;9.818;2022-10-12T04:16:18;4.20;99.90
1948;DHT22;974;52.400;9.818;2022-10-12T04:18:44;4.10;99.90
1948;DHT22;974;52.400;9.818;2022-10-12T04:21:12;4.20;99.90
1948;DHT22;974;52.400;9.818;2022-10-12T04:23:38;4.20;99.90
1948;DHT22;974;52.400;9.818;2022-10-12T04:26:04;4.20;99.90
1948;DHT22;974;52.400;9.818;2022-10-12T04:28:29;4.20;99.90
1948;DHT22;974;52.400;9.818;2022-10-12T04:30:55;4.20;99.90
1948;DHT22;974;52.400;9.818;2022-10-12T04:33:20;4.30;99.90
1948;DHT22;974;52.400;9.818;2022-10-12T04:35:46;4.30;99.90
1948;DHT22;974;52.400;9.818;2022-10-12T04:38:11;4.20;99.90
1948;DHT22;974;52.400;9.818;2022-10-12T04:40:37;4.20;99.90
1948;DHT22;974;52.400;9.818;2022-10-12T04:43:03;4.20;99.90
1948;DHT22;974;52.400;9.818;2022-10-12T04:45:29;4.10;99.90
1948;DHT22;974;52.400;9.818;2022-10-12T04:47:54;4.10;99.90
1948;DHT22;974;52.400;9.818;2022-10-12T04:50:21;4.10;99.90
1948;DHT22;974;52.400;9.818;2022-10-12T04:52:46;4.10;99.90
1948;DHT22;974;52.400;9.818;2022-10-12T04:55:12;4.10;99.90
1948;DHT22;974;52.400;9.818;2022-10-12T04:57:38;4.10;99.90
1948;DHT22;974;52.400;9.818;2022-10-12T05:00:04;4.10;99.90
1948;DHT22;974;52.400;9.818;2022-10-12T05:02:30;4.00;99.90
1948;DHT22;974;52.400;9.818;2022-10-12T05:04:55;4.10;99.90
1948;DHT22;974;52.400;9.818;2022-10-12T05:07:22;4.10;99.90
1948;DHT22;974;52.400;9.818;2022-10-12T05:09:47;4.10;99.90
1948;DHT22;974;52.400;9.818;2022-10-12T05:12:13;4.10;99.90
1948;DHT22;974;52.400;9.818;2022-10-12T05:14:39;4.10;99.90
1948;DHT22;974;52.400;9.818;2022-10-12T05:17:04;3.90;99.90
1948;DHT22;974;52.400;9.818;2022-10-12T05:19:30;3.90;99.90
1948;DHT22;974;52.400;9.818;2022-10-12T05:21:55;3.90;99.90
1948;DHT22;974;52.400;9.818;2022-10-12T05:24:21;3.90;99.90
1948;DHT22;974;52.400;9.818;2022-10-12T05:26:46;3.90;99.90
1948;DHT22;974;52.400;9.818;2022-10-12T05:29:12;3.90;99.90
1948;DHT22;974;52.400;9.818;2022-10-12T05:31:37;4.00;99.90
1948;DHT22;974;52.400;9.818;2022-10-12T05:34:02;3.90;99.90
1948;DHT22;974;52.400;9.818;2022-10-12T05:36:28;4.00;99.90
1948;DHT22;974;52.400;9.818;2022-10-12T05:38:53;4.00;99.90
1948;DHT22;974;52.400;9.818;2022-10-12T05:41:19;4.00;99.90
1948;DHT22;974;52.400;9.818;2022-10-12T05:43:45;4.00;99.90
1948;DHT22;974;52.400;9.818;2022-10-12T05:46:10;4.00;99.90
1948;DHT22;974;52.400;9.818;2022-10-12T05:48:36;4.00;99.90
1948;DHT22;974;52.400;9.818;2022-10-12T05:51:01;3.90;99.90
1948;DHT22;974;52.400;9.818;2022-10-12T05:53:27;3.90;99.90
1948;DHT22;974;52.400;9.818;2022-10-12T05:55:54;4.00;99.90
1948;DHT22;974;52.400;9.818;2022-10-12T05:58:20;3.90;99.90
1948;DHT22;974;52.400;9.818;2022-10-12T06:00:45;4.00;99.90
1948;DHT22;974;52.400;9.818;2022-10-12T06:03:11;4.10;99.90
1948;DHT22;974;52.400;9.818;2022-10-12T06:05:36;4.10;99.90
1948;DHT22;974;52.400;9.818;2022-10-12T06:08:02;4.10;99.90
1948;DHT22;974;52.400;9.818;2022-10-12T06:10:27;4.30;99.90
1948;DHT22;974;52.400;9.818;2022-10-12T06:12:52;4.40;99.90
1948;DHT22;974;52.400;9.818;2022-10-12T06:15:18;4.40;99.90
1948;DHT22;974;52.400;9.818;2022-10-12T06:17:44;4.50;99.90
1948;DHT22;974;52.400;9.818;2022-10-12T06:20:10;4.40;99.90
1948;DHT22;974;52.400;9.818;2022-10-12T06:22:35;4.40;99.90
1948;DHT22;974;52.400;9.818;2022-10-12T06:25:01;4.40;99.90
1948;DHT22;974;52.400;9.818;2022-10-12T06:27:26;4.40;99.90
1948;DHT22;974;52.400;9.818;2022-10-12T06:29:52;4.40;99.90
1948;DHT22;974;52.400;9.818;2022-10-12T06:32:17;4.50;99.90
1948;DHT22;974;52.400;9.818;2022-10-12T06:34:43;4.50;99.90
1948;DHT22;974;52.400;9.818;2022-10-12T06:37:08;4.60;99.90
1948;DHT22;974;52.400;9.818;2022-10-12T06:39:34;4.70;99.90
1948;DHT22;974;52.400;9.818;2022-10-12T06:41:59;4.80;99.90
1948;DHT22;974;52.400;9.818;2022-10-12T06:44:25;4.80;99.90
1948;DHT22;974;52.400;9.818;2022-10-12T06:46:50;4.90;99.90
1948;DHT22;974;52.400;9.818;2022-10-12T06:49:16;5.00;99.90
1948;DHT22;974;52.400;9.818;2022-10-12T06:51:42;5.10;99.90
1948;DHT22;974;52.400;9.818;2022-10-12T06:54:07;5.20;99.90
1948;DHT22;974;52.400;9.818;2022-10-12T06:56:33;5.30;99.90
1948;DHT22;974;52.400;9.818;2022-10-12T06:58:59;5.30;99.90
1948;DHT22;974;52.400;9.818;2022-10-12T07:01:24;5.30;99.90
1948;DHT22;974;52.400;9.818;2022-10-12T07:03:50;5.40;99.90
1948;DHT22;974;52.400;9.818;2022-10-12T07:06:15;5.50;99.90
1948;DHT22;974;52.400;9.818;2022-10-12T07:08:41;5.60;99.90
1948;DHT22;974;52.400;9.818;2022-10-12T07:11:09;5.70;99.90
1948;DHT22;974;52.400;9.818;2022-10-12T07:13:35;5.80;99.90
1948;DHT22;974;52.400;9.818;2022-10-12T07:16:02;5.80;99.90
1948;DHT22;974;52.400;9.818;2022-10-12T07:18:27;5.90;99.90
1948;DHT22;974;52.400;9.818;2022-10-12T07:20:56;5.90;99.90
1948;DHT22;974;52.400;9.818;2022-10-12T07:23:24;6.00;99.90
1948;DHT22;974;52.400;9.818;2022-10-12T07:25:50;6.00;99.90
1948;DHT22;974;52.400;9.818;2022-10-12T07:28:17;6.10;99.90
1948;DHT22;974;52.400;9.818;2022-10-12T07:30:44;6.20;99.90
1948;DHT22;974;52.400;9.818;2022-10-12T07:33:10;6.20;99.90
1948;DHT22;974;52.400;9.818;2022-10-12T07:35:35;6.30;99.90
1948;DHT22;974;52.400;9.818;2022-10-12T07:38:01;6.40;99.90
1948;DHT22;974;52.400;9.818;2022-10-12T07:40:27;6.50;99.90
1948;DHT22;974;52.400;9.818;2022-10-12T07:42:53;6.50;99.90
1948;DHT22;974;52.400;9.818;2022-10-12T07:45:19;6.60;99.90
1948;DHT22;974;52.400;9.818;2022-10-12T07:47:45;6.60;99.90
1948;DHT22;974;52.400;9.818;2022-10-12T07:50:11;6.70;99.90
1948;DHT22;974;52.400;9.818;2022-10-12T07:52:36;6.70;99.90
1948;DHT22;974;52.400;9.818;2022-10-12T07:55:02;6.80;99.90
1948;DHT22;974;52.400;9.818;2022-10-12T07:57:28;6.90;99.90
1948;DHT22;974;52.400;9.818;2022-10-12T07:59:53;7.00;99.90
1948;DHT22;974;52.400;9.818;2022-10-12T08:02:19;7.00;99.90
1948;DHT22;974;52.400;9.818;2022-10-12T08:04:45;7.10;99.90
1948;DHT22;974;52.400;9.818;2022-10-12T08:07:11;7.10;99.90
1948;DHT22;974;52.400;9.818;2022-10-12T08:09:36;7.20;99.90
1948;DHT22;974;52.400;9.818;2022-10-12T08:12:03;7.30;99.90
1948;DHT22;974;52.400;9.818;2022-10-12T08:14:28;7.40;99.90
1948;DHT22;974;52.400;9.818;2022-10-12T08:16:54;7.50;99.90
1948;DHT22;974;52.400;9.818;2022-10-12T08:19:19;7.50;99.90
1948;DHT22;974;52.400;9.818;2022-10-12T08:21:45;7.60;99.90
1948;DHT22;974;52.400;9.818;2022-10-12T08:24:11;7.70;99.90
1948;DHT22;974;52.400;9.818;2022-10-12T08:26:37;7.80;99.90
1948;DHT22;974;52.400;9.818;2022-10-12T08:29:04;7.80;99.90
1948;DHT22;974;52.400;9.818;2022-10-12T08:31:30;7.90;99.90
1948;DHT22;974;52.400;9.818;2022-10-12T08:33:57;8.00;99.90
1948;DHT22;974;52.400;9.818;2022-10-12T08:36:22;8.10;99.90
1948;DHT22;974;52.400;9.818;2022-10-12T08:38:52;8.20;99.90
1948;DHT22;974;52.400;9.818;2022-10-12T08:41:51;8.30;99.90
1948;DHT22;974;52.400;9.818;2022-10-12T08:47:19;8.40;99.90
1948;DHT22;974;52.400;9.818;2022-10-12T08:49:46;8.50;99.90
1948;DHT22;974;52.400;9.818;2022-10-12T08:52:30;8.60;99.90
1948;DHT22;974;52.400;9.818;2022-10-12T08:55:01;8.70;99.90
1948;DHT22;974;52.400;9.818;2022-10-12T08:57:29;8.80;99.90
1948;DHT22;974;52.400;9.818;2022-10-12T08:59:55;8.90;99.90
1948;DHT22;974;52.400;9.818;2022-10-12T09:05:39;9.00;99.90
1948;DHT22;974;52.400;9.818;2022-10-12T09:08:13;9.10;99.90
1948;DHT22;974;52.400;9.818;2022-10-12T09:10:45;9.20;99.90
1948;DHT22;974;52.400;9.818;2022-10-12T09:13:41;9.30;99.90
1948;DHT22;974;52.400;9.818;2022-10-12T09:16:29;9.40;99.90
1948;DHT22;974;52.400;9.818;2022-10-12T09:19:05;9.50;99.90
1948;DHT22;974;52.400;9.818;2022-10-12T09:21:33;9.60;99.90
1948;DHT22;974;52.400;9.818;2022-10-12T09:23:59;9.70;99.90
1948;DHT22;974;52.400;9.818;2022-10-12T09:26:33;9.80;99.90
1948;DHT22;974;52.400;9.818;2022-10-12T09:29:00;9.90;99.90
1948;DHT22;974;52.400;9.818;2022-10-12T09:34:06;10.10;99.90
1948;DHT22;974;52.400;9.818;2022-10-12T09:36:39;10.20;99.90
1948;DHT22;974;52.400;9.818;2022-10-12T09:39:12;10.30;99.90
1948;DHT22;974;52.400;9.818;2022-10-12T09:41:42;10.40;99.90
1948;DHT22;974;52.400;9.818;2022-10-12T09:47:03;10.60;99.90
1948;DHT22;974;52.400;9.818;2022-10-12T09:52:05;10.80;99.90
1948;DHT22;974;52.400;9.818;2022-10-12T09:54:31;10.90;99.90
1948;DHT22;974;52.400;9.818;2022-10-12T09:56:57;11.00;99.90
1948;DHT22;974;52.400;9.818;2022-10-12T09:59:29;11.10;99.90
1948;DHT22;974;52.400;9.818;2022-10-12T10:04:32;11.30;99.90
1948;DHT22;974;52.400;9.818;2022-10-12T10:09:47;11.60;99.90
1948;DHT22;974;52.400;9.818;2022-10-12T10:12:22;11.70;99.90
1948;DHT22;974;52.400;9.818;2022-10-12T10:14:50;11.70;99.90
1948;DHT22;974;52.400;9.818;2022-10-12T10:17:23;11.90;99.90
1948;DHT22;974;52.400;9.818;2022-10-12T10:19:50;12.00;99.90
1948;DHT22;974;52.400;9.818;2022-10-12T10:22:17;12.10;99.90
1948;DHT22;974;52.400;9.818;2022-10-12T10:24:52;12.20;99.90
1948;DHT22;974;52.400;9.818;2022-10-12T10:27:34;12.30;99.90
1948;DHT22;974;52.400;9.818;2022-10-12T10:32:44;12.50;99.90
1948;DHT22;974;52.400;9.818;2022-10-12T10:35:21;12.60;99.90
1948;DHT22;974;52.400;9.818;2022-10-12T10:37:50;12.60;99.90
1948;DHT22;974;52.400;9.818;2022-10-12T10:40:20;12.80;99.90
1948;DHT22;974;52.400;9.818;2022-10-12T10:43:01;12.90;99.90
1948;DHT22;974;52.400;9.818;2022-10-12T10:45:52;13.00;99.90
1948;DHT22;974;52.400;9.818;2022-10-12T10:48:21;13.10;99.90
1948;DHT22;974;52.400;9.818;2022-10-12T10:50:57;13.20;99.90
1948;DHT22;974;52.400;9.818;2022-10-12T10:53:25;13.40;99.90
1948;DHT22;974;52.400;9.818;2022-10-12T10:58:42;13.60;99.90
1948;DHT22;974;52.400;9.818;2022-10-12T11:06:22;13.80;99.90
1948;DHT22;974;52.400;9.818;2022-10-12T11:09:00;13.90;99.90
1948;DHT22;974;52.400;9.818;2022-10-12T11:11:31;14.00;99.90
1948;DHT22;974;52.400;9.818;2022-10-12T11:14:04;14.10;99.90
1948;DHT22;974;52.400;9.818;2022-10-12T11:16:40;14.20;99.90
1948;DHT22;974;52.400;9.818;2022-10-12T11:21:58;14.50;99.90
1948;DHT22;974;52.400;9.818;2022-10-12T11:24:53;14.60;99.90
1948;DHT22;974;52.400;9.818;2022-10-12T11:27:33;14.90;99.90
1948;DHT22;974;52.400;9.818;2022-10-12T11:30:03;15.10;99.90
1948;DHT22;974;52.400;9.818;2022-10-12T11:32:36;15.30;99.90
1948;DHT22;974;52.400;9.818;2022-10-12T11:35:04;15.60;99.90
1948;DHT22;974;52.400;9.818;2022-10-12T11:37:52;15.80;99.90
1948;DHT22;974;52.400;9.818;2022-10-12T11:40:39;16.00;99.90
1948;DHT22;974;52.400;9.818;2022-10-12T11:43:10;16.10;99.90
1948;DHT22;974;52.400;9.818;2022-10-12T11:45:40;16.20;99.90
1948;DHT22;974;52.400;9.818;2022-10-12T11:48:19;18.80;99.90
1948;DHT22;974;52.400;9.818;2022-10-12T11:50:47;27.00;99.90
1948;DHT22;974;52.400;9.818;2022-10-12T11:53:42;32.50;99.90
1948;DHT22;974;52.400;9.818;2022-10-12T11:58:45;39.10;54.70
1948;DHT22;974;52.400;9.818;2022-10-12T12:01:32;39.20;49.50
1948;DHT22;974;52.400;9.818;2022-10-12T12:04:24;41.60;42.40
1948;DHT22;974;52.400;9.818;2022-10-12T12:09:55;39.80;34.40
1948;DHT22;974;52.400;9.818;2022-10-12T12:12:26;41.70;33.60
1948;DHT22;974;52.400;9.818;2022-10-12T12:19:47;44.70;27.60
1948;DHT22;974;52.400;9.818;2022-10-12T12:22:30;45.50;26.80
1948;DHT22;974;52.400;9.818;2022-10-12T12:27:52;42.60;25.50
1948;DHT22;974;52.400;9.818;2022-10-12T12:32:54;37.50;27.30
1948;DHT22;974;52.400;9.818;2022-10-12T12:35:30;36.10;28.20
1948;DHT22;974;52.400;9.818;2022-10-12T12:40:41;34.40;32.00
1948;DHT22;974;52.400;9.818;2022-10-12T12:45:57;38.40;27.80
1948;DHT22;974;52.400;9.818;2022-10-12T12:51:06;32.00;29.10
1948;DHT22;974;52.400;9.818;2022-10-12T12:53:36;29.50;31.90
1948;DHT22;974;52.400;9.818;2022-10-12T13:02:18;22.80;42.60
1948;DHT22;974;52.400;9.818;2022-10-12T13:08:08;20.30;49.30
1948;DHT22;974;52.400;9.818;2022-10-12T13:10:47;19.70;51.10
1948;DHT22;974;52.400;9.818;2022-10-12T13:19:12;18.50;56.10
1948;DHT22;974;52.400;9.818;2022-10-12T13:21:41;18.30;57.90
1948;DHT22;974;52.400;9.818;2022-10-12T13:27:23;17.80;60.40
1948;DHT22;974;52.400;9.818;2022-10-12T13:32:55;17.80;63.50
1948;DHT22;974;52.400;9.818;2022-10-12T13:38:13;18.00;62.40
1948;DHT22;974;52.400;9.818;2022-10-12T13:48:58;18.20;62.00
1948;DHT22;974;52.400;9.818;2022-10-12T13:51:27;18.20;62.50
1948;DHT22;974;52.400;9.818;2022-10-12T13:53:53;18.20;62.80
1948;DHT22;974;52.400;9.818;2022-10-12T13:56:22;18.10;62.40
1948;DHT22;974;52.400;9.818;2022-10-12T13:58:57;18.00;63.00
1948;DHT22;974;52.400;9.818;2022-10-12T14:01:24;17.80;64.80
1948;DHT22;974;52.400;9.818;2022-10-12T14:03:49;17.60;66.10
1948;DHT22;974;52.400;9.818;2022-10-12T14:06:34;17.40;66.50
1948;DHT22;974;52.400;9.818;2022-10-12T14:09:14;17.30;66.60
1948;DHT22;974;52.400;9.818;2022-10-12T14:11:42;17.10;68.80
1948;DHT22;974;52.400;9.818;2022-10-12T14:14:22;16.90;69.30
1948;DHT22;974;52.400;9.818;2022-10-12T14:16:50;16.80;69.80
1948;DHT22;974;52.400;9.818;2022-10-12T14:19:29;16.70;70.20
1948;DHT22;974;52.400;9.818;2022-10-12T14:21:56;16.70;71.00
1948;DHT22;974;52.400;9.818;2022-10-12T14:24:23;16.70;70.90
1948;DHT22;974;52.400;9.818;2022-10-12T14:26:58;16.60;72.00
1948;DHT22;974;52.400;9.818;2022-10-12T14:29:42;16.60;71.20
1948;DHT22;974;52.400;9.818;2022-10-12T14:34:40;16.30;71.80
1948;DHT22;974;52.400;9.818;2022-10-12T14:39:36;16.20;71.60
1948;DHT22;974;52.400;9.818;2022-10-12T14:44:50;16.10;71.70
1948;DHT22;974;52.400;9.818;2022-10-12T14:47:33;16.00;72.10
1948;DHT22;974;52.400;9.818;2022-10-12T14:50:05;16.00;72.70
1948;DHT22;974;52.400;9.818;2022-10-12T14:52:47;16.00;71.80
1948;DHT22;974;52.400;9.818;2022-10-12T14:55:32;15.90;73.00
1948;DHT22;974;52.400;9.818;2022-10-12T14:57:58;15.90;73.80
1948;DHT22;974;52.400;9.818;2022-10-12T15:00:28;15.90;74.10
1948;DHT22;974;52.400;9.818;2022-10-12T15:02:54;15.90;73.90
1948;DHT22;974;52.400;9.818;2022-10-12T15:05:21;15.90;72.60
1948;DHT22;974;52.400;9.818;2022-10-12T15:07:48;15.90;73.80
1948;DHT22;974;52.400;9.818;2022-10-12T15:10:15;15.80;75.60
1948;DHT22;974;52.400;9.818;2022-10-12T15:12:41;15.80;73.80
1948;DHT22;974;52.400;9.818;2022-10-12T15:15:37;15.90;73.60
1948;DHT22;974;52.400;9.818;2022-10-12T15:18:04;15.80;73.20
1948;DHT22;974;52.400;9.818;2022-10-12T15:20:31;15.80;73.20
1948;DHT22;974;52.400;9.818;2022-10-12T15:22:57;15.70;74.20
1948;DHT22;974;52.400;9.818;2022-10-12T15:25:36;15.60;73.60
1948;DHT22;974;52.400;9.818;2022-10-12T15:28:03;15.50;75.30
1948;DHT22;974;52.400;9.818;2022-10-12T15:30:30;15.40;77.40
1948;DHT22;974;52.400;9.818;2022-10-12T15:32:55;15.40;77.60
1948;DHT22;974;52.400;9.818;2022-10-12T15:35:23;15.30;77.90
1948;DHT22;974;52.400;9.818;2022-10-12T15:37:50;15.20;77.70
1948;DHT22;974;52.400;9.818;2022-10-12T15:40:17;15.30;77.40
1948;DHT22;974;52.400;9.818;2022-10-12T15:42:43;15.20;78.90
1948;DHT22;974;52.400;9.818;2022-10-12T15:45:32;15.20;79.80
1948;DHT22;974;52.400;9.818;2022-10-12T15:47:59;15.10;81.00
1948;DHT22;974;52.400;9.818;2022-10-12T15:50:38;15.00;82.50
1948;DHT22;974;52.400;9.818;2022-10-12T15:53:05;14.90;83.70
1948;DHT22;974;52.400;9.818;2022-10-12T15:55:31;14.90;84.40
1948;DHT22;974;52.400;9.818;2022-10-12T15:57:57;14.80;85.40
1948;DHT22;974;52.400;9.818;2022-10-12T16:00:26;14.70;86.90
1948;DHT22;974;52.400;9.818;2022-10-12T16:02:52;14.60;88.50
1948;DHT22;974;52.400;9.818;2022-10-12T16:05:31;14.40;90.00
1948;DHT22;974;52.400;9.818;2022-10-12T16:07:58;14.30;90.80
1948;DHT22;974;52.400;9.818;2022-10-12T16:10:26;14.30;91.90
1948;DHT22;974;52.400;9.818;2022-10-12T16:12:53;14.10;92.20
1948;DHT22;974;52.400;9.818;2022-10-12T16:15:24;14.00;93.00
1948;DHT22;974;52.400;9.818;2022-10-12T16:17:50;13.90;93.80
1948;DHT22;974;52.400;9.818;2022-10-12T16:20:16;13.80;94.50
1948;DHT22;974;52.400;9.818;2022-10-12T16:22:42;13.70;95.50
1948;DHT22;974;52.400;9.818;2022-10-12T16:25:09;13.50;96.60
1948;DHT22;974;52.400;9.818;2022-10-12T16:27:36;13.30;97.70
1948;DHT22;974;52.400;9.818;2022-10-12T16:30:03;13.10;98.80
1948;DHT22;974;52.400;9.818;2022-10-12T16:32:28;13.00;99.90
1948;DHT22;974;52.400;9.818;2022-10-12T16:34:54;12.90;99.90
1948;DHT22;974;52.400;9.818;2022-10-12T16:37:19;12.70;99.90
1948;DHT22;974;52.400;9.818;2022-10-12T16:39:45;12.50;99.90
1948;DHT22;974;52.400;9.818;2022-10-12T16:42:11;12.40;99.90
1948;DHT22;974;52.400;9.818;2022-10-12T16:44:36;12.30;99.90
1948;DHT22;974;52.400;9.818;2022-10-12T16:47:02;12.10;99.90
1948;DHT22;974;52.400;9.818;2022-10-12T16:49:28;12.00;99.90
1948;DHT22;974;52.400;9.818;2022-10-12T16:51:54;11.90;99.90
1948;DHT22;974;52.400;9.818;2022-10-12T16:54:20;11.80;99.90
1948;DHT22;974;52.400;9.818;2022-10-12T16:56:46;11.70;99.90
1948;DHT22;974;52.400;9.818;2022-10-12T16:59:11;11.60;99.90
1948;DHT22;974;52.400;9.818;2022-10-12T17:01:37;11.50;99.90
1948;DHT22;974;52.400;9.818;2022-10-12T17:04:02;11.40;99.90
1948;DHT22;974;52.400;9.818;2022-10-12T17:06:28;11.30;99.90
1948;DHT22;974;52.400;9.818;2022-10-12T17:08:56;11.20;99.90
1948;DHT22;974;52.400;9.818;2022-10-12T17:11:22;11.10;99.90
1948;DHT22;974;52.400;9.818;2022-10-12T17:13:48;11.00;99.90
1948;DHT22;974;52.400;9.818;2022-10-12T17:16:14;10.90;99.90
1948;DHT22;974;52.400;9.818;2022-10-12T17:18:59;10.90;99.90
1948;DHT22;974;52.400;9.818;2022-10-12T17:21:25;10.80;99.90
1948;DHT22;974;52.400;9.818;2022-10-12T17:23:51;10.70;99.90
1948;DHT22;974;52.400;9.818;2022-10-12T17:26:16;10.70;99.90
1948;DHT22;974;52.400;9.818;2022-10-12T17:28:42;10.60;99.90
1948;DHT22;974;52.400;9.818;2022-10-12T17:31:08;10.50;99.90
1948;DHT22;974;52.400;9.818;2022-10-12T17:33:34;10.40;99.90
1948;DHT22;974;52.400;9.818;2022-10-12T17:36:05;10.40;99.90
1948;DHT22;974;52.400;9.818;2022-10-12T17:38:32;10.30;99.90
1948;DHT22;974;52.400;9.818;2022-10-12T17:40:57;10.10;99.90
1948;DHT22;974;52.400;9.818;2022-10-12T17:43:23;10.20;99.90
1948;DHT22;974;52.400;9.818;2022-10-12T17:45:48;10.10;99.90
1948;DHT22;974;52.400;9.818;2022-10-12T17:48:14;10.00;99.90
1948;DHT22;974;52.400;9.818;2022-10-12T17:50:40;10.00;99.90
1948;DHT22;974;52.400;9.818;2022-10-12T17:53:06;9.90;99.90
1948;DHT22;974;52.400;9.818;2022-10-12T17:55:32;9.90;99.90
1948;DHT22;974;52.400;9.818;2022-10-12T17:57:58;9.80;99.90
1948;DHT22;974;52.400;9.818;2022-10-12T18:00:24;9.70;99.90
1948;DHT22;974;52.400;9.818;2022-10-12T18:02:49;9.70;99.90
1948;DHT22;974;52.400;9.818;2022-10-12T18:05:15;9.60;99.90
1948;DHT22;974;52.400;9.818;2022-10-12T18:07:41;9.60;99.90
1948;DHT22;974;52.400;9.818;2022-10-12T18:10:07;9.60;99.90
1948;DHT22;974;52.400;9.818;2022-10-12T18:12:33;9.50;99.90
1948;DHT22;974;52.400;9.818;2022-10-12T18:14:59;9.40;99.90
1948;DHT22;974;52.400;9.818;2022-10-12T18:17:24;9.40;99.90
1948;DHT22;974;52.400;9.818;2022-10-12T18:19:50;9.30;99.90
1948;DHT22;974;52.400;9.818;2022-10-12T18:22:16;9.30;99.90
1948;DHT22;974;52.400;9.818;2022-10-12T18:24:41;9.20;99.90
1948;DHT22;974;52.400;9.818;2022-10-12T18:27:07;9.20;99.90
1948;DHT22;974;52.400;9.818;2022-10-12T18:29:33;9.20;99.90
1948;DHT22;974;52.400;9.818;2022-10-12T18:31:58;9.20;99.90
1948;DHT22;974;52.400;9.818;2022-10-12T18:34:25;9.20;99.90
1948;DHT22;974;52.400;9.818;2022-10-12T18:36:51;9.10;99.90
1948;DHT22;974;52.400;9.818;2022-10-12T18:39:17;9.10;99.90
1948;DHT22;974;52.400;9.818;2022-10-12T18:41:44;9.00;99.90
1948;DHT22;974;52.400;9.818;2022-10-12T18:44:10;9.00;99.90